createdAt,value
2023-03-13T00:01:30.706Z,11.80
2023-03-13T00:03:57.420Z,11.82
2023-03-13T00:06:26.865Z,11.78
2023-03-13T00:08:55.092Z,11.78
2023-03-13T00:11:24.730Z,11.76
2023-03-13T00:13:58.145Z,11.72
2023-03-13T00:16:24.920Z,11.84
2023-03-13T00:18:55.656Z,11.71
2023-03-13T00:21:28.194Z,11.64
2023-03-13T00:23:55.300Z,11.54
2023-03-13T00:26:24.774Z,11.70
2023-03-13T00:28:54.909Z,11.71
2023-03-13T00:31:27.195Z,11.69
2023-03-13T00:34:02.150Z,11.74
2023-03-13T00:36:32.086Z,11.73
2023-03-13T00:38:59.642Z,11.49
2023-03-13T00:41:28.903Z,11.48
2023-03-13T00:43:55.845Z,11.56
2023-03-13T00:46:25.776Z,11.56
2023-03-13T00:48:56.943Z,11.68
2023-03-13T00:51:28.070Z,11.53
2023-03-13T00:54:02.249Z,11.61
2023-03-13T00:56:28.831Z,11.63
2023-03-13T00:58:55.611Z,11.63
2023-03-13T01:01:26.897Z,11.69
2023-03-13T01:03:59.355Z,11.67
2023-03-13T01:06:28.829Z,11.65
2023-03-13T01:08:59.335Z,11.70
2023-03-13T01:11:29.129Z,11.63
2023-03-13T01:13:57.911Z,11.88
2023-03-13T01:16:30.224Z,11.66
2023-03-13T01:18:59.871Z,11.76
2023-03-13T01:21:26.610Z,11.78
2023-03-13T01:23:56.258Z,11.79
2023-03-13T01:26:25.864Z,11.81
2023-03-13T01:28:52.697Z,11.79
2023-03-13T01:31:28.702Z,11.90
2023-03-13T01:33:59.779Z,11.77
2023-03-13T01:36:29.963Z,11.75
2023-03-13T01:39:00.886Z,11.74
2023-03-13T01:41:30.239Z,11.74
2023-03-13T01:43:58.744Z,11.51
2023-03-13T01:46:30.219Z,11.57
2023-03-13T01:49:19.681Z,11.50
2023-03-13T01:51:58.359Z,11.60
2023-03-13T01:54:37.831Z,11.50
2023-03-13T01:57:17.776Z,11.59
2023-03-13T01:59:48.557Z,11.47
2023-03-13T02:02:16.206Z,11.50
2023-03-13T02:04:47.091Z,11.54
2023-03-13T02:07:20.582Z,11.57
2023-03-13T02:09:52.147Z,11.45
2023-03-13T02:12:27.899Z,11.59
2023-03-13T02:14:58.938Z,11.69
2023-03-13T02:17:28.966Z,11.61
2023-03-13T02:19:55.667Z,11.43
2023-03-13T02:22:53.225Z,11.46
2023-03-13T02:25:19.617Z,11.42
2023-03-13T02:27:47.620Z,11.39
2023-03-13T02:30:15.249Z,11.42
2023-03-13T02:32:43.113Z,11.33
2023-03-13T02:35:13.768Z,11.41
2023-03-13T02:37:42.591Z,11.41
2023-03-13T02:40:14.012Z,11.49
2023-03-13T02:42:43.324Z,11.47
2023-03-13T02:45:10.844Z,11.47
2023-03-13T02:47:37.293Z,11.48
2023-03-13T02:50:03.933Z,11.52
2023-03-13T02:52:39.042Z,11.40
2023-03-13T02:55:10.822Z,11.63
2023-03-13T02:57:37.266Z,11.56
2023-03-13T03:00:07.257Z,11.56
2023-03-13T03:02:33.771Z,11.50
2023-03-13T03:05:03.437Z,11.46
2023-03-13T03:07:34.196Z,11.39
2023-03-13T03:10:02.551Z,11.41
2023-03-13T03:12:29.050Z,11.44
2023-03-13T03:14:55.598Z,11.48
2023-03-13T03:17:22.134Z,11.36
2023-03-13T03:19:48.587Z,11.49
2023-03-13T03:22:15.071Z,11.38
2023-03-13T03:24:41.610Z,11.47
2023-03-13T03:27:08.074Z,11.38
2023-03-13T03:29:34.577Z,11.33
2023-03-13T03:32:02.929Z,11.35
2023-03-13T03:34:29.576Z,11.41
2023-03-13T03:36:56.132Z,11.33
2023-03-13T03:39:22.713Z,11.52
2023-03-13T03:41:49.293Z,11.49
2023-03-13T03:44:15.775Z,11.62
2023-03-13T03:46:42.318Z,11.58
2023-03-13T03:49:08.774Z,11.50
2023-03-13T03:51:35.258Z,11.64
2023-03-13T03:54:03.841Z,11.42
2023-03-13T03:56:30.545Z,11.54
2023-03-13T03:58:57.072Z,11.67
2023-03-13T04:01:23.589Z,11.47
2023-03-13T04:03:50.050Z,11.43
2023-03-13T04:06:16.509Z,11.31
2023-03-13T04:08:43.038Z,11.33
2023-03-13T04:11:09.631Z,11.37
2023-03-13T04:13:36.072Z,11.51
2023-03-13T04:16:08.086Z,11.46
2023-03-13T04:18:37.618Z,11.28
2023-03-13T04:21:07.782Z,11.26
2023-03-13T04:23:37.108Z,11.20
2023-03-13T04:26:05.753Z,11.30
2023-03-13T04:28:32.263Z,11.34
2023-03-13T04:30:58.857Z,11.33
2023-03-13T04:33:25.619Z,11.34
2023-03-13T04:35:52.222Z,11.26
2023-03-13T04:38:18.943Z,11.00
2023-03-13T04:40:46.807Z,11.31
2023-03-13T04:43:13.270Z,11.27
2023-03-13T04:45:39.726Z,11.05
2023-03-13T04:48:09.006Z,11.18
2023-03-13T04:50:37.873Z,11.27
2023-03-13T04:53:04.812Z,11.14
2023-03-13T04:55:31.672Z,11.01
2023-03-13T04:57:58.170Z,10.95
2023-03-13T05:00:24.741Z,11.17
2023-03-13T05:02:51.211Z,10.82
2023-03-13T05:05:17.869Z,10.99
2023-03-13T05:07:44.353Z,11.14
2023-03-13T05:10:11.184Z,10.90
2023-03-13T05:12:40.709Z,10.69
2023-03-13T05:15:10.486Z,10.85
2023-03-13T05:17:39.305Z,11.01
2023-03-13T05:20:11.615Z,11.00
2023-03-13T05:22:41.653Z,10.95
2023-03-13T05:25:10.090Z,10.87
2023-03-13T05:27:36.849Z,11.00
2023-03-13T05:30:04.413Z,11.12
2023-03-13T05:32:30.922Z,11.02
2023-03-13T05:34:57.441Z,10.96
2023-03-13T05:37:24.021Z,10.92
2023-03-13T05:39:50.591Z,11.25
2023-03-13T05:42:17.083Z,11.24
2023-03-13T05:44:43.527Z,11.13
2023-03-13T05:47:12.877Z,11.17
2023-03-13T05:49:42.165Z,11.23
2023-03-13T05:52:10.974Z,11.35
2023-03-13T05:54:40.930Z,11.15
2023-03-13T05:57:08.613Z,11.11
2023-03-13T05:59:35.459Z,11.28
2023-03-13T06:02:02.465Z,11.13
2023-03-13T06:04:29.320Z,11.09
2023-03-13T06:06:55.882Z,11.06
2023-03-13T06:09:22.381Z,11.20
2023-03-13T06:11:49.209Z,11.03
2023-03-13T06:14:15.667Z,10.93
2023-03-13T06:16:42.160Z,10.85
2023-03-13T06:19:11.868Z,10.83
2023-03-13T06:21:41.865Z,10.75
2023-03-13T06:24:11.611Z,10.71
2023-03-13T06:26:40.799Z,10.79
2023-03-13T06:29:09.448Z,10.85
2023-03-13T06:31:36.234Z,10.97
2023-03-13T06:34:02.972Z,10.81
2023-03-13T06:36:29.590Z,10.97
2023-03-13T06:38:58.980Z,11.04
2023-03-13T06:41:25.743Z,10.99
2023-03-13T06:43:52.226Z,11.12
2023-03-13T06:46:22.181Z,11.08
2023-03-13T06:48:49.411Z,10.94
2023-03-13T06:51:18.881Z,10.84
2023-03-13T06:53:45.799Z,10.91
2023-03-13T06:56:12.257Z,11.05
2023-03-13T06:58:42.297Z,11.09
2023-03-13T07:01:11.841Z,10.99
2023-03-13T07:03:43.408Z,11.21
2023-03-13T07:06:12.565Z,11.33
2023-03-13T07:08:44.356Z,11.33
2023-03-13T07:11:13.307Z,11.48
2023-03-13T07:13:43.046Z,11.60
2023-03-13T07:16:16.226Z,11.59
2023-03-13T07:18:44.902Z,11.61
2023-03-13T07:21:12.522Z,11.76
2023-03-13T07:23:43.883Z,11.86
2023-03-13T07:26:15.989Z,11.85
2023-03-13T07:28:43.496Z,11.92
2023-03-13T07:31:14.817Z,12.10
2023-03-13T07:33:45.344Z,12.32
2023-03-13T07:36:13.853Z,12.11
2023-03-13T07:38:44.289Z,12.11
2023-03-13T07:41:13.476Z,12.16
2023-03-13T07:43:43.245Z,12.21
2023-03-13T07:46:21.543Z,12.20
2023-03-13T07:48:48.285Z,12.35
2023-03-13T07:51:17.604Z,12.38
2023-03-13T07:53:45.237Z,12.38
2023-03-13T07:56:14.332Z,12.38
2023-03-13T07:58:42.252Z,12.44
2023-03-13T08:01:20.010Z,13.08
2023-03-13T08:03:50.624Z,13.67
2023-03-13T08:06:19.990Z,14.32
2023-03-13T08:08:47.293Z,14.46
2023-03-13T08:11:16.712Z,14.66
2023-03-13T08:13:43.575Z,14.91
2023-03-13T08:16:16.005Z,15.39
2023-03-13T08:18:44.815Z,16.04
2023-03-13T08:21:13.897Z,16.24
2023-03-13T08:23:43.997Z,16.26
2023-03-13T08:26:19.251Z,16.49
2023-03-13T08:28:47.755Z,16.86
2023-03-13T08:31:15.443Z,17.53
2023-03-13T08:33:43.637Z,17.88
2023-03-13T08:36:28.619Z,17.77
2023-03-13T08:38:58.371Z,17.71
2023-03-13T08:41:31.040Z,17.58
2023-03-13T08:43:57.880Z,17.40
2023-03-13T08:46:25.476Z,17.15
2023-03-13T08:48:53.904Z,16.96
2023-03-13T08:51:23.051Z,16.74
2023-03-13T08:53:50.245Z,16.61
2023-03-13T08:56:19.645Z,16.40
2023-03-13T08:58:53.623Z,16.16
2023-03-13T09:01:22.120Z,16.07
2023-03-13T09:03:49.700Z,16.01
2023-03-13T09:06:16.416Z,15.89
2023-03-13T09:08:43.154Z,16.12
2023-03-13T09:11:21.219Z,16.46
2023-03-13T09:13:50.014Z,16.55
2023-03-13T09:16:22.431Z,17.03
2023-03-13T09:18:50.430Z,17.45
2023-03-13T09:21:19.723Z,18.23
2023-03-13T09:23:47.379Z,19.36
2023-03-13T09:26:14.718Z,20.38
2023-03-13T09:28:44.317Z,21.23
2023-03-13T09:31:16.262Z,21.89
2023-03-13T09:33:45.238Z,22.25
2023-03-13T09:36:13.247Z,22.63
2023-03-13T09:38:41.742Z,22.85
2023-03-13T09:41:17.903Z,23.12
2023-03-13T09:44:00.940Z,23.33
2023-03-13T09:46:41.351Z,23.10
2023-03-13T09:49:31.323Z,22.99
2023-03-13T09:52:25.357Z,23.51
2023-03-13T09:55:05.259Z,23.58
2023-03-13T09:57:45.500Z,23.46
2023-03-13T10:00:24.226Z,23.26
2023-03-13T10:03:03.522Z,23.17
2023-03-13T10:05:32.009Z,22.56
2023-03-13T10:08:47.335Z,22.29
2023-03-13T10:11:28.308Z,22.84
2023-03-13T10:14:04.230Z,22.87
2023-03-13T10:16:56.231Z,23.36
2023-03-13T10:19:31.493Z,23.81
2023-03-13T10:22:03.612Z,23.62
2023-03-13T10:24:42.391Z,23.91
2023-03-13T10:27:15.950Z,24.29
2023-03-13T10:29:45.712Z,24.64
2023-03-13T10:32:17.472Z,24.97
2023-03-13T10:34:59.242Z,24.92
2023-03-13T10:37:41.528Z,24.91
2023-03-13T10:40:26.125Z,24.90
2023-03-13T10:43:00.109Z,25.49
2023-03-13T10:45:30.978Z,25.75
2023-03-13T10:48:02.006Z,26.35
2023-03-13T10:50:34.531Z,26.22
2023-03-13T10:53:25.727Z,25.92
2023-03-13T10:55:54.413Z,25.65
2023-03-13T10:58:30.431Z,26.23
2023-03-13T11:01:22.458Z,26.01
2023-03-13T11:03:51.441Z,26.01
2023-03-13T11:06:32.945Z,25.90
2023-03-13T11:09:03.810Z,25.66
2023-03-13T11:11:32.280Z,25.30
2023-03-13T11:14:12.903Z,25.20
2023-03-13T11:16:49.283Z,25.41
2023-03-13T11:19:27.218Z,25.93
2023-03-13T11:21:53.732Z,26.49
2023-03-13T11:24:43.426Z,27.26
2023-03-13T11:27:48.141Z,27.71
2023-03-13T11:30:47.698Z,27.98
2023-03-13T11:33:22.519Z,28.09
2023-03-13T11:36:03.735Z,27.99
2023-03-13T11:39:23.891Z,28.86
2023-03-13T11:41:59.026Z,28.31
2023-03-13T11:44:31.971Z,28.03
2023-03-13T11:47:13.431Z,28.80
2023-03-13T11:49:45.541Z,29.22
2023-03-13T11:52:29.118Z,28.40
2023-03-13T11:55:17.082Z,28.72
2023-03-13T11:58:12.479Z,28.77
2023-03-13T12:01:06.353Z,29.29
2023-03-13T12:03:57.550Z,29.42
2023-03-13T12:06:34.052Z,28.52
2023-03-13T12:09:31.325Z,27.85
2023-03-13T12:12:11.193Z,27.22
2023-03-13T12:14:53.346Z,27.39
2023-03-13T12:17:31.721Z,27.30
2023-03-13T12:20:13.304Z,27.02
2023-03-13T12:22:46.486Z,26.81
2023-03-13T12:25:21.336Z,26.95
2023-03-13T12:27:54.751Z,26.70
2023-03-13T12:30:41.547Z,26.94
2023-03-13T12:33:28.507Z,26.94
2023-03-13T12:36:05.842Z,27.43
2023-03-13T12:38:48.409Z,27.87
2023-03-13T12:41:24.735Z,27.90
2023-03-13T12:44:07.832Z,27.28
2023-03-13T12:46:37.998Z,25.72
2023-03-13T12:49:12.914Z,25.25
2023-03-13T12:51:48.061Z,25.33
2023-03-13T12:54:33.214Z,25.58
2023-03-13T12:57:29.732Z,25.00
2023-03-13T13:00:07.797Z,24.71
2023-03-13T13:02:34.418Z,24.78
2023-03-13T13:05:02.831Z,24.65
2023-03-13T13:07:34.450Z,24.55
2023-03-13T13:10:15.652Z,24.45
2023-03-13T13:12:46.807Z,24.24
2023-03-13T13:15:22.507Z,24.93
2023-03-13T13:18:04.250Z,25.29
2023-03-13T13:20:45.568Z,24.55
2023-03-13T13:23:23.142Z,25.00
2023-03-13T13:25:50.597Z,25.50
2023-03-13T13:28:19.191Z,25.84
2023-03-13T13:30:45.755Z,25.59
2023-03-13T13:33:18.603Z,25.37
2023-03-13T13:35:47.287Z,24.95
2023-03-13T13:38:19.915Z,24.29
2023-03-13T13:41:03.548Z,24.41
2023-03-13T13:43:33.012Z,24.95
2023-03-13T13:46:20.005Z,25.04
2023-03-13T13:48:46.640Z,24.50
2023-03-13T13:51:15.646Z,23.99
2023-03-13T13:53:47.151Z,24.06
2023-03-13T13:56:29.128Z,24.20
2023-03-13T13:59:26.858Z,23.78
2023-03-13T14:02:25.795Z,23.04
2023-03-13T14:04:57.945Z,22.74
2023-03-13T14:07:48.567Z,22.62
2023-03-13T14:10:34.048Z,22.16
2023-03-13T14:13:02.900Z,22.13
2023-03-13T14:15:31.633Z,22.10
2023-03-13T14:18:01.055Z,22.68
2023-03-13T14:20:38.007Z,23.85
2023-03-13T14:23:10.754Z,24.07
2023-03-13T14:25:49.910Z,23.65
2023-03-13T14:28:28.512Z,23.89
2023-03-13T14:30:58.058Z,24.99
2023-03-13T14:33:29.527Z,26.11
2023-03-13T14:35:57.683Z,25.97
2023-03-13T14:38:26.332Z,25.46
2023-03-13T14:40:55.592Z,24.38
2023-03-13T14:43:35.901Z,23.61
2023-03-13T14:46:15.843Z,23.14
2023-03-13T14:48:42.522Z,22.98
2023-03-13T14:51:17.324Z,22.69
2023-03-13T14:53:55.354Z,22.77
2023-03-13T14:56:32.112Z,22.79
2023-03-13T14:59:09.334Z,22.76
2023-03-13T15:01:36.252Z,22.77
2023-03-13T15:04:02.799Z,22.72
2023-03-13T15:06:29.432Z,22.62
2023-03-13T15:09:17.808Z,22.94
2023-03-13T15:12:05.826Z,22.85
2023-03-13T15:14:43.777Z,22.68
2023-03-13T15:17:17.072Z,23.28
2023-03-13T15:19:43.921Z,23.18
2023-03-13T15:22:15.265Z,22.83
2023-03-13T15:24:56.122Z,22.54
2023-03-13T15:27:31.285Z,22.37
2023-03-13T15:29:57.793Z,22.22
2023-03-13T15:32:30.800Z,22.08
2023-03-13T15:34:58.564Z,22.05
2023-03-13T15:37:26.502Z,21.82
2023-03-13T15:39:53.541Z,21.72
2023-03-13T15:42:19.978Z,21.79
2023-03-13T15:44:46.481Z,21.67
2023-03-13T15:47:18.634Z,21.54
2023-03-13T15:49:45.135Z,21.57
2023-03-13T15:52:18.895Z,21.53
2023-03-13T15:54:50.178Z,21.42
2023-03-13T15:57:22.221Z,21.31
2023-03-13T15:59:49.977Z,21.16
2023-03-13T16:02:21.963Z,20.98
2023-03-13T16:04:48.945Z,20.86
2023-03-13T16:07:18.154Z,20.83
2023-03-13T16:09:44.677Z,20.80
2023-03-13T16:12:13.521Z,20.86
2023-03-13T16:14:43.410Z,20.53
2023-03-13T16:17:18.196Z,19.47
2023-03-13T16:19:46.325Z,16.88
2023-03-13T16:22:14.690Z,15.90
2023-03-13T16:24:43.714Z,15.35
2023-03-13T16:27:16.041Z,15.42
2023-03-13T16:29:46.050Z,15.09
2023-03-13T16:32:17.221Z,15.16
2023-03-13T16:34:44.047Z,15.11
2023-03-13T16:37:16.565Z,15.11
2023-03-13T16:39:47.009Z,15.16
2023-03-13T16:42:14.176Z,15.24
2023-03-13T16:44:42.955Z,15.23
2023-03-13T16:47:27.142Z,15.30
2023-03-13T16:49:53.985Z,15.35
2023-03-13T16:52:20.487Z,15.33
2023-03-13T16:54:47.520Z,15.40
2023-03-13T16:57:17.740Z,15.61
2023-03-13T16:59:44.380Z,15.73
2023-03-13T17:02:16.538Z,15.57
2023-03-13T17:04:44.934Z,15.67
2023-03-13T17:07:23.122Z,15.44
2023-03-13T17:09:51.398Z,15.31
2023-03-13T17:12:18.922Z,15.25
2023-03-13T17:14:45.970Z,15.12
2023-03-13T17:17:19.086Z,15.02
2023-03-13T17:19:46.110Z,14.97
2023-03-13T17:22:15.303Z,14.75
2023-03-13T17:24:45.422Z,14.78
2023-03-13T17:27:17.938Z,14.79
2023-03-13T17:29:45.238Z,14.83
2023-03-13T17:32:18.225Z,14.66
2023-03-13T17:34:44.769Z,14.59
2023-03-13T17:37:20.553Z,14.62
2023-03-13T17:39:49.018Z,14.60
2023-03-13T17:42:15.546Z,14.60
2023-03-13T17:44:45.124Z,14.37
2023-03-13T17:47:17.711Z,14.38
2023-03-13T17:49:44.863Z,14.36
2023-03-13T17:52:17.947Z,14.59
2023-03-13T17:54:45.312Z,14.65
2023-03-13T17:57:18.747Z,14.72
2023-03-13T17:59:46.331Z,14.65
2023-03-13T18:02:16.698Z,14.77
2023-03-13T18:04:44.988Z,14.80
2023-03-13T18:07:43.783Z,14.36
2023-03-13T18:10:16.227Z,14.02
2023-03-13T18:12:45.563Z,13.26
2023-03-13T18:15:15.516Z,12.68
2023-03-13T18:17:43.652Z,12.43
2023-03-13T18:20:21.659Z,12.05
2023-03-13T18:22:48.211Z,11.92
2023-03-13T18:25:15.072Z,11.63
2023-03-13T18:27:43.353Z,11.56
2023-03-13T18:30:21.862Z,11.52
2023-03-13T18:32:48.481Z,11.45
2023-03-13T18:35:18.219Z,11.51
2023-03-13T18:37:46.545Z,11.50
2023-03-13T18:40:22.628Z,11.45
2023-03-13T18:42:49.305Z,11.16
2023-03-13T18:45:26.360Z,11.07
2023-03-13T18:47:53.269Z,11.00
2023-03-13T18:50:26.132Z,10.92
2023-03-13T18:52:55.381Z,10.70
2023-03-13T18:55:24.106Z,10.65
2023-03-13T18:57:53.462Z,10.66
2023-03-13T19:00:29.154Z,10.73
2023-03-13T19:02:55.742Z,10.70
2023-03-13T19:05:22.957Z,10.65
2023-03-13T19:07:49.662Z,10.39
2023-03-13T19:10:18.301Z,10.19
2023-03-13T19:12:44.870Z,9.97
2023-03-13T19:15:14.570Z,9.97
2023-03-13T19:17:42.155Z,9.89
2023-03-13T19:20:17.616Z,9.96
2023-03-13T19:22:47.111Z,10.01
2023-03-13T19:25:29.477Z,10.07
2023-03-13T19:27:56.137Z,10.13
2023-03-13T19:30:25.147Z,10.19
2023-03-13T19:32:52.071Z,10.20
2023-03-13T19:35:20.997Z,9.99
2023-03-13T19:37:47.620Z,10.33
2023-03-13T19:40:19.926Z,10.40
2023-03-13T19:42:46.423Z,10.42
2023-03-13T19:45:17.674Z,10.50
2023-03-13T19:47:47.293Z,10.61
2023-03-13T19:50:23.188Z,10.81
2023-03-13T19:52:49.676Z,11.02
2023-03-13T19:55:16.537Z,11.03
2023-03-13T19:57:46.568Z,10.82
2023-03-13T20:00:27.924Z,10.70
2023-03-13T20:02:57.084Z,10.81
2023-03-13T20:05:27.036Z,10.79
2023-03-13T20:07:54.239Z,10.68
2023-03-13T20:10:24.355Z,10.83
2023-03-13T20:12:50.926Z,11.00
2023-03-13T20:15:17.979Z,10.91
2023-03-13T20:17:47.416Z,10.92
2023-03-13T20:20:16.658Z,10.93
2023-03-13T20:22:43.284Z,11.09
2023-03-13T20:25:10.848Z,11.13
2023-03-13T20:27:39.030Z,11.02
2023-03-13T20:30:06.360Z,10.71
2023-03-13T20:32:33.080Z,10.77
2023-03-13T20:34:59.540Z,10.89
2023-03-13T20:37:26.290Z,11.00
2023-03-13T20:39:52.718Z,10.96
2023-03-13T20:42:20.793Z,10.80
2023-03-13T20:44:47.230Z,10.68
2023-03-13T20:47:15.838Z,10.66
2023-03-13T20:49:42.394Z,10.66
2023-03-13T20:52:09.049Z,10.61
2023-03-13T20:54:35.839Z,10.75
2023-03-13T20:57:02.509Z,10.79
2023-03-13T20:59:29.042Z,10.80
2023-03-13T21:01:55.912Z,10.77
2023-03-13T21:04:22.466Z,10.72
2023-03-13T21:06:50.062Z,10.73
2023-03-13T21:09:16.794Z,10.70
2023-03-13T21:11:43.279Z,10.77
2023-03-13T21:14:09.744Z,10.76
2023-03-13T21:16:36.267Z,10.81
2023-03-13T21:19:03.322Z,10.95
2023-03-13T21:21:30.407Z,10.85
2023-03-13T21:23:57.241Z,10.79
2023-03-13T21:26:24.048Z,10.74
2023-03-13T21:28:54.256Z,10.66
2023-03-13T21:31:21.357Z,10.86
2023-03-13T21:33:50.031Z,10.97
2023-03-13T21:36:25.603Z,10.81
2023-03-13T21:38:55.127Z,10.80
2023-03-13T21:41:23.490Z,10.74
2023-03-13T21:43:55.622Z,10.75
2023-03-13T21:46:27.476Z,10.64
2023-03-13T21:48:54.964Z,10.67
2023-03-13T21:51:27.391Z,10.81
2023-03-13T21:53:54.693Z,10.78
2023-03-13T21:56:22.571Z,10.86
2023-03-13T21:58:49.179Z,10.71
2023-03-13T22:01:18.414Z,10.50
2023-03-13T22:03:51.554Z,10.44
2023-03-13T22:06:26.079Z,10.55
2023-03-13T22:08:54.132Z,10.65
2023-03-13T22:11:26.759Z,10.55
2023-03-13T22:13:54.669Z,10.59
2023-03-13T22:16:30.824Z,10.49
2023-03-13T22:18:57.826Z,10.50
2023-03-13T22:21:24.621Z,10.51
2023-03-13T22:23:51.217Z,10.54
2023-03-13T22:26:21.364Z,10.52
2023-03-13T22:28:48.904Z,10.47
2023-03-13T22:31:19.539Z,10.42
2023-03-13T22:33:50.666Z,10.33
2023-03-13T22:36:21.294Z,10.19
2023-03-13T22:38:53.374Z,10.20
2023-03-13T22:41:21.363Z,10.25
2023-03-13T22:43:51.121Z,10.26
2023-03-13T22:46:20.665Z,10.18
2023-03-13T22:48:51.060Z,10.18
2023-03-13T22:51:21.833Z,10.23
2023-03-13T22:53:53.024Z,10.18
2023-03-13T22:56:20.714Z,10.10
2023-03-13T22:58:49.065Z,10.19
2023-03-13T23:01:20.323Z,10.13
2023-03-13T23:03:49.638Z,10.08
2023-03-13T23:06:22.215Z,10.09
2023-03-13T23:08:50.672Z,10.04
2023-03-13T23:11:20.666Z,10.00
2023-03-13T23:13:47.360Z,9.99
2023-03-13T23:16:14.834Z,9.97
2023-03-13T23:18:42.400Z,9.93
2023-03-13T23:21:11.748Z,9.91
2023-03-13T23:23:38.486Z,9.85
2023-03-13T23:26:08.248Z,9.84
2023-03-13T23:28:36.085Z,9.82
2023-03-13T23:31:14.547Z,9.84
2023-03-13T23:33:41.230Z,9.77
2023-03-13T23:36:10.428Z,9.84
2023-03-13T23:38:37.065Z,9.91
2023-03-13T23:41:08.088Z,9.79
2023-03-13T23:43:34.983Z,9.76
2023-03-13T23:46:01.823Z,9.83
2023-03-13T23:48:28.597Z,9.77
2023-03-13T23:50:55.408Z,9.74
2023-03-13T23:53:22.766Z,9.73
2023-03-13T23:55:58.352Z,9.80
2023-03-13T23:58:25.032Z,9.76
